createdAt,value
2019-03-16T00:01:37.890Z,5.45
2019-03-16T00:04:03.704Z,5.43
2019-03-16T00:06:29.493Z,5.43
2019-03-16T00:08:55.320Z,5.40
2019-03-16T00:11:21.111Z,5.41
2019-03-16T00:13:46.912Z,5.38
2019-03-16T00:16:12.695Z,5.40
2019-03-16T00:18:38.484Z,5.41
2019-03-16T00:21:04.275Z,5.46
2019-03-16T00:23:30.076Z,5.43
2019-03-16T00:25:55.859Z,5.52
2019-03-16T00:28:21.666Z,5.52
2019-03-16T00:30:47.440Z,5.50
2019-03-16T00:33:13.242Z,5.42
2019-03-16T00:35:39.020Z,5.42
2019-03-16T00:38:04.800Z,5.44
2019-03-16T00:40:30.608Z,5.40
2019-03-16T00:42:56.395Z,5.40
2019-03-16T00:45:22.189Z,5.46
2019-03-16T00:47:47.973Z,5.47
2019-03-16T00:50:13.913Z,5.46
2019-03-16T00:52:39.756Z,5.51
2019-03-16T00:55:06.857Z,5.47
2019-03-16T00:57:32.780Z,5.44
2019-03-16T00:59:58.581Z,5.46
2019-03-16T01:02:27.248Z,5.43
2019-03-16T01:04:52.055Z,5.45
2019-03-16T01:07:17.832Z,5.48
2019-03-16T01:09:43.901Z,5.44
2019-03-16T01:12:09.690Z,5.42
2019-03-16T01:14:35.563Z,5.44
2019-03-16T01:17:01.339Z,5.40
2019-03-16T01:19:27.230Z,5.39
2019-03-16T01:21:53.008Z,5.36
2019-03-16T01:24:18.832Z,5.43
2019-03-16T01:26:44.602Z,5.45
2019-03-16T01:29:10.391Z,5.44
2019-03-16T01:31:36.168Z,5.48
2019-03-16T01:34:01.966Z,5.53
2019-03-16T01:36:27.746Z,5.47
2019-03-16T01:38:53.536Z,5.48
2019-03-16T01:41:19.326Z,5.48
2019-03-16T01:43:45.103Z,5.49
2019-03-16T01:46:10.899Z,5.49
2019-03-16T01:48:36.674Z,5.47
2019-03-16T01:51:02.475Z,5.43
2019-03-16T01:53:28.251Z,5.43
2019-03-16T01:55:54.050Z,5.48
2019-03-16T01:58:19.830Z,5.49
2019-03-16T02:00:45.604Z,5.55
2019-03-16T02:03:11.398Z,5.57
2019-03-16T02:05:37.196Z,5.52
2019-03-16T02:08:02.971Z,5.57
2019-03-16T02:10:28.777Z,5.62
2019-03-16T02:12:54.553Z,5.57
2019-03-16T02:15:20.344Z,5.56
2019-03-16T02:17:46.121Z,5.60
2019-03-16T02:20:11.929Z,5.69
2019-03-16T02:22:37.708Z,5.72
2019-03-16T02:25:04.596Z,5.71
2019-03-16T02:27:30.372Z,5.73
2019-03-16T02:29:56.167Z,5.69
2019-03-16T02:32:21.937Z,5.73
2019-03-16T02:34:47.758Z,5.75
2019-03-16T02:37:13.533Z,5.76
2019-03-16T02:39:39.318Z,4.55
2019-03-16T02:42:05.107Z,5.69
2019-03-16T02:44:30.888Z,5.73
2019-03-16T02:46:56.678Z,5.67
2019-03-16T02:49:22.458Z,5.64
2019-03-16T02:51:48.239Z,5.61
2019-03-16T02:54:14.023Z,5.59
2019-03-16T02:56:39.815Z,5.62
2019-03-16T02:59:05.595Z,5.61
2019-03-16T03:01:31.375Z,5.57
2019-03-16T03:03:57.151Z,5.56
2019-03-16T03:06:22.950Z,5.53
2019-03-16T03:08:48.726Z,5.48
2019-03-16T03:11:14.537Z,5.54
2019-03-16T03:13:40.318Z,5.53
2019-03-16T03:16:06.110Z,5.54
2019-03-16T03:18:31.889Z,5.56
2019-03-16T03:20:57.684Z,5.59
2019-03-16T03:23:23.473Z,5.65
2019-03-16T03:25:49.240Z,5.72
2019-03-16T03:28:15.018Z,5.66
2019-03-16T03:30:40.822Z,5.66
2019-03-16T03:33:06.611Z,5.67
2019-03-16T03:35:32.381Z,5.62
2019-03-16T03:37:58.182Z,5.61
2019-03-16T03:40:23.964Z,5.58
2019-03-16T03:42:49.781Z,5.50
2019-03-16T03:45:15.559Z,5.50
2019-03-16T03:47:41.344Z,5.57
2019-03-16T03:50:09.629Z,5.54
2019-03-16T03:52:35.420Z,5.49
2019-03-16T03:55:01.508Z,5.50
2019-03-16T03:57:27.296Z,5.48
2019-03-16T03:59:53.071Z,5.49
2019-03-16T04:02:18.868Z,5.55
2019-03-16T04:04:44.751Z,5.52
2019-03-16T04:07:10.527Z,5.46
2019-03-16T04:09:36.330Z,5.43
2019-03-16T04:12:02.125Z,5.45
2019-03-16T04:14:27.897Z,5.40
2019-03-16T04:16:53.694Z,5.42
2019-03-16T04:19:19.479Z,5.46
2019-03-16T04:21:45.268Z,5.44
2019-03-16T04:24:11.062Z,5.35
2019-03-16T04:26:36.849Z,5.45
2019-03-16T04:29:02.625Z,5.45
2019-03-16T04:31:28.421Z,5.29
2019-03-16T04:33:54.202Z,5.41
2019-03-16T04:36:20.011Z,5.31
2019-03-16T04:38:45.795Z,5.31
2019-03-16T04:41:11.578Z,5.32
2019-03-16T04:43:37.372Z,5.37
2019-03-16T04:46:03.153Z,5.32
2019-03-16T04:48:28.944Z,5.30
2019-03-16T04:50:54.755Z,5.29
2019-03-16T04:53:20.508Z,5.24
2019-03-16T04:55:46.285Z,5.29
2019-03-16T04:58:12.072Z,5.26
2019-03-16T05:00:37.854Z,5.31
2019-03-16T05:03:03.656Z,5.31
2019-03-16T05:05:29.428Z,5.29
2019-03-16T05:07:55.222Z,5.24
2019-03-16T05:10:21.014Z,5.22
2019-03-16T05:12:46.810Z,5.27
2019-03-16T05:15:12.789Z,5.21
2019-03-16T05:17:38.590Z,5.20
2019-03-16T05:20:07.789Z,5.21
2019-03-16T05:22:33.633Z,5.20
2019-03-16T05:24:59.417Z,5.27
2019-03-16T05:27:25.193Z,5.17
2019-03-16T05:29:50.981Z,5.19
2019-03-16T05:32:16.800Z,5.21
2019-03-16T05:34:55.660Z,5.19
2019-03-16T05:37:10.217Z,5.17
2019-03-16T05:39:36.013Z,5.17
2019-03-16T05:42:05.020Z,5.19
2019-03-16T05:44:29.488Z,5.14
2019-03-16T05:46:55.266Z,5.15
2019-03-16T05:49:21.054Z,5.19
2019-03-16T05:51:46.834Z,5.20
2019-03-16T05:54:12.630Z,5.20
2019-03-16T05:56:38.413Z,5.21
2019-03-16T05:59:04.204Z,5.22
2019-03-16T06:01:29.984Z,5.19
2019-03-16T06:03:55.792Z,5.21
2019-03-16T06:06:21.567Z,5.17
2019-03-16T06:08:47.357Z,5.23
2019-03-16T06:11:13.144Z,5.25
2019-03-16T06:13:39.035Z,5.29
2019-03-16T06:16:04.802Z,5.34
2019-03-16T06:18:30.577Z,5.36
2019-03-16T06:20:56.367Z,5.37
2019-03-16T06:23:23.446Z,5.43
2019-03-16T06:25:49.341Z,5.42
2019-03-16T06:28:15.111Z,5.48
2019-03-16T06:30:40.906Z,5.50
2019-03-16T06:33:06.694Z,5.50
2019-03-16T06:35:32.487Z,5.58
2019-03-16T06:37:58.270Z,5.58
2019-03-16T06:40:24.060Z,5.62
2019-03-16T06:42:49.832Z,5.64
2019-03-16T06:45:15.625Z,5.74
2019-03-16T06:47:41.402Z,5.76
2019-03-16T06:50:11.859Z,5.79
2019-03-16T06:52:37.644Z,5.85
2019-03-16T06:55:05.041Z,5.92
2019-03-16T06:57:31.634Z,5.92
2019-03-16T06:59:57.427Z,5.92
2019-03-16T07:02:23.211Z,5.95
2019-03-16T07:04:48.990Z,6.03
2019-03-16T07:07:14.783Z,6.10
2019-03-16T07:09:40.563Z,6.08
2019-03-16T07:12:06.362Z,6.13
2019-03-16T07:14:32.136Z,6.17
2019-03-16T07:17:02.289Z,6.15
2019-03-16T07:19:25.609Z,6.13
2019-03-16T07:21:51.395Z,6.20
2019-03-16T07:24:17.168Z,6.26
2019-03-16T07:26:42.955Z,6.28
2019-03-16T07:29:08.739Z,6.35
2019-03-16T07:31:34.567Z,6.41
2019-03-16T07:34:00.329Z,6.41
2019-03-16T07:36:26.115Z,6.42
2019-03-16T07:38:51.907Z,6.37
2019-03-16T07:41:17.698Z,6.45
2019-03-16T07:43:43.471Z,6.51
2019-03-16T07:46:09.260Z,6.52
2019-03-16T07:48:35.034Z,6.48
2019-03-16T07:51:00.818Z,6.57
2019-03-16T07:53:26.600Z,6.51
2019-03-16T07:55:52.402Z,6.64
2019-03-16T07:58:18.207Z,6.71
2019-03-16T08:00:43.974Z,6.77
2019-03-16T08:03:09.818Z,6.86
2019-03-16T08:05:35.543Z,6.81
2019-03-16T08:08:01.337Z,6.81
2019-03-16T08:10:27.127Z,6.85
2019-03-16T08:12:52.924Z,6.86
2019-03-16T08:15:18.700Z,6.98
2019-03-16T08:17:44.493Z,7.09
2019-03-16T08:20:10.470Z,7.18
2019-03-16T08:22:36.254Z,7.20
2019-03-16T08:25:02.044Z,7.18
2019-03-16T08:27:27.840Z,7.18
2019-03-16T08:29:53.620Z,7.26
2019-03-16T08:32:19.414Z,7.20
2019-03-16T08:34:45.195Z,7.11
2019-03-16T08:37:10.968Z,7.15
2019-03-16T08:39:36.758Z,7.17
2019-03-16T08:42:02.550Z,7.39
2019-03-16T08:44:28.362Z,7.60
2019-03-16T08:46:54.134Z,7.60
2019-03-16T08:49:19.934Z,7.51
2019-03-16T08:51:45.706Z,7.55
2019-03-16T08:54:11.503Z,7.64
2019-03-16T08:56:37.282Z,7.59
2019-03-16T08:59:03.071Z,7.71
2019-03-16T09:01:28.871Z,7.81
2019-03-16T09:03:54.661Z,7.97
2019-03-16T09:06:20.442Z,8.04
2019-03-16T09:08:46.228Z,7.94
2019-03-16T09:11:12.015Z,7.96
2019-03-16T09:13:37.828Z,8.01
2019-03-16T09:16:03.609Z,8.11
2019-03-16T09:18:29.401Z,7.93
2019-03-16T09:20:55.176Z,8.05
2019-03-16T09:23:20.976Z,8.09
2019-03-16T09:25:46.751Z,8.09
2019-03-16T09:28:18.720Z,7.96
2019-03-16T09:30:40.285Z,8.07
2019-03-16T09:33:06.125Z,7.97
2019-03-16T09:35:31.900Z,7.93
2019-03-16T09:37:57.676Z,7.92
2019-03-16T09:40:23.480Z,7.79
2019-03-16T09:42:49.251Z,7.80
2019-03-16T09:45:15.056Z,7.84
2019-03-16T09:47:40.869Z,7.82
2019-03-16T09:50:07.832Z,7.90
2019-03-16T09:52:33.620Z,7.97
2019-03-16T09:54:59.498Z,8.06
2019-03-16T09:57:25.280Z,8.05
2019-03-16T09:59:51.078Z,7.98
2019-03-16T10:02:16.872Z,7.77
2019-03-16T10:04:42.683Z,7.60
2019-03-16T10:07:08.463Z,7.65
2019-03-16T10:09:34.262Z,7.40
2019-03-16T10:12:00.065Z,7.25
2019-03-16T10:14:25.840Z,7.10
2019-03-16T10:16:51.630Z,7.08
2019-03-16T10:19:17.426Z,6.75
2019-03-16T10:21:43.211Z,6.52
2019-03-16T10:24:09.000Z,6.33
2019-03-16T10:26:37.432Z,6.27
2019-03-16T10:29:02.467Z,6.03
2019-03-16T10:31:28.253Z,5.86
2019-03-16T10:33:54.029Z,5.83
2019-03-16T10:36:19.812Z,5.89
2019-03-16T10:38:45.599Z,5.95
2019-03-16T10:41:11.388Z,5.95
2019-03-16T10:43:37.166Z,6.06
2019-03-16T10:46:02.955Z,6.23
2019-03-16T10:48:28.746Z,6.36
2019-03-16T10:50:54.533Z,6.34
2019-03-16T10:53:20.316Z,6.33
2019-03-16T10:55:46.207Z,6.40
2019-03-16T10:58:11.989Z,6.40
2019-03-16T11:00:37.772Z,6.42
2019-03-16T11:03:03.588Z,6.43
2019-03-16T11:05:29.373Z,6.47
2019-03-16T11:07:55.188Z,6.37
2019-03-16T11:10:20.975Z,6.41
2019-03-16T11:12:46.765Z,6.39
2019-03-16T11:15:12.934Z,6.53
2019-03-16T11:17:38.737Z,6.55
2019-03-16T11:20:09.082Z,6.49
2019-03-16T11:22:34.884Z,6.21
2019-03-16T11:25:00.669Z,6.10
2019-03-16T11:27:26.456Z,5.96
2019-03-16T11:29:52.237Z,5.98
2019-03-16T11:32:18.040Z,6.01
2019-03-16T11:34:43.822Z,6.13
2019-03-16T11:37:09.620Z,6.27
2019-03-16T11:39:35.391Z,6.27
2019-03-16T11:42:01.181Z,6.28
2019-03-16T11:44:26.955Z,6.22
2019-03-16T11:46:52.739Z,6.14
2019-03-16T11:49:18.540Z,6.06
2019-03-16T11:51:44.315Z,5.97
2019-03-16T11:54:10.101Z,5.93
2019-03-16T11:56:35.881Z,5.83
2019-03-16T11:59:01.664Z,5.89
2019-03-16T12:01:27.443Z,5.93
2019-03-16T12:03:53.231Z,6.05
2019-03-16T12:06:19.002Z,6.26
2019-03-16T12:08:44.792Z,6.31
2019-03-16T12:11:10.581Z,6.47
2019-03-16T12:13:36.367Z,6.59
2019-03-16T12:16:02.153Z,6.40
2019-03-16T12:18:27.965Z,6.22
2019-03-16T12:20:53.725Z,6.26
2019-03-16T12:23:19.514Z,6.12
2019-03-16T12:25:45.301Z,6.21
2019-03-16T12:28:11.115Z,6.05
2019-03-16T12:30:36.895Z,6.05
2019-03-16T12:33:02.684Z,6.04
2019-03-16T12:35:28.482Z,6.09
2019-03-16T12:37:54.255Z,6.04
2019-03-16T12:40:20.052Z,5.79
2019-03-16T12:42:45.825Z,5.73
2019-03-16T12:45:13.112Z,5.76
2019-03-16T12:47:38.894Z,5.59
2019-03-16T12:50:06.579Z,5.56
2019-03-16T12:52:32.362Z,5.44
2019-03-16T12:54:58.155Z,5.47
2019-03-16T12:57:23.937Z,5.48
2019-03-16T12:59:49.744Z,5.29
2019-03-16T13:02:15.512Z,5.34
2019-03-16T13:04:41.400Z,5.29
2019-03-16T13:07:07.186Z,5.27
2019-03-16T13:09:32.982Z,5.33
2019-03-16T13:11:58.767Z,5.23
2019-03-16T13:14:24.553Z,5.12
2019-03-16T13:16:50.334Z,4.98
2019-03-16T13:19:16.121Z,4.90
2019-03-16T13:21:43.862Z,4.95
2019-03-16T13:24:09.593Z,4.94
2019-03-16T13:26:35.389Z,5.01
2019-03-16T13:29:01.164Z,5.00
2019-03-16T13:31:26.964Z,5.12
2019-03-16T13:33:53.479Z,5.07
2019-03-16T13:36:19.338Z,4.93
2019-03-16T13:38:45.110Z,4.93
2019-03-16T13:41:10.903Z,4.92
2019-03-16T13:43:36.671Z,4.93
2019-03-16T13:46:02.462Z,4.93
2019-03-16T13:48:28.237Z,4.88
2019-03-16T13:50:54.037Z,4.83
2019-03-16T13:53:19.812Z,4.75
2019-03-16T13:55:45.803Z,4.72
2019-03-16T13:58:11.586Z,4.77
2019-03-16T14:00:37.478Z,4.73
2019-03-16T14:03:03.462Z,4.78
2019-03-16T14:05:29.286Z,4.72
2019-03-16T14:07:55.066Z,4.73
2019-03-16T14:10:26.366Z,4.69
2019-03-16T14:12:52.167Z,4.68
2019-03-16T14:15:17.946Z,4.70
2019-03-16T14:17:43.742Z,4.83
2019-03-16T14:20:12.228Z,4.95
2019-03-16T14:22:38.024Z,5.03
2019-03-16T14:25:07.396Z,5.01
2019-03-16T14:27:33.401Z,5.00
2019-03-16T14:29:59.176Z,5.01
2019-03-16T14:32:24.963Z,4.98
2019-03-16T14:34:50.740Z,5.04
2019-03-16T14:37:16.750Z,5.07
2019-03-16T14:39:42.572Z,5.00
2019-03-16T14:42:08.532Z,4.98
2019-03-16T14:44:34.366Z,5.01
2019-03-16T14:47:00.162Z,5.06
2019-03-16T14:49:25.941Z,5.08
2019-03-16T14:51:51.738Z,5.07
2019-03-16T14:54:17.522Z,5.07
2019-03-16T14:56:43.302Z,5.15
2019-03-16T14:59:09.087Z,5.13
2019-03-16T15:01:34.875Z,5.19
2019-03-16T15:04:00.702Z,5.17
2019-03-16T15:06:26.475Z,5.13
2019-03-16T15:08:52.270Z,5.17
2019-03-16T15:11:18.053Z,5.16
2019-03-16T15:13:43.844Z,5.23
2019-03-16T15:16:09.619Z,5.25
2019-03-16T15:18:35.412Z,5.29
2019-03-16T15:21:01.188Z,5.33
2019-03-16T15:23:26.979Z,5.36
2019-03-16T15:25:52.758Z,5.32
2019-03-16T15:28:18.557Z,5.27
2019-03-16T15:30:50.556Z,5.22
2019-03-16T15:33:12.028Z,5.32
2019-03-16T15:35:37.815Z,5.35
2019-03-16T15:38:03.606Z,5.32
2019-03-16T15:40:29.385Z,5.35
2019-03-16T15:42:55.177Z,5.38
2019-03-16T15:45:26.680Z,5.41
2019-03-16T15:47:52.466Z,5.47
2019-03-16T15:50:18.270Z,5.53
2019-03-16T15:52:44.046Z,5.53
2019-03-16T15:55:09.947Z,5.68
2019-03-16T15:57:35.727Z,5.77
2019-03-16T16:00:07.354Z,5.87
2019-03-16T16:02:33.110Z,5.95
2019-03-16T16:04:58.904Z,6.07
2019-03-16T16:07:24.695Z,6.12
2019-03-16T16:09:50.479Z,6.24
2019-03-16T16:12:16.262Z,6.37
2019-03-16T16:14:42.065Z,6.42
2019-03-16T16:17:07.836Z,6.50
2019-03-16T16:19:33.629Z,6.58
2019-03-16T16:21:59.414Z,6.58
2019-03-16T16:24:25.208Z,6.66
2019-03-16T16:26:50.984Z,6.73
2019-03-16T16:29:17.028Z,6.72
2019-03-16T16:31:42.810Z,6.80
2019-03-16T16:34:08.594Z,6.85
2019-03-16T16:36:34.476Z,6.89
2019-03-16T16:39:00.263Z,6.95
2019-03-16T16:41:26.088Z,6.98
2019-03-16T16:43:51.826Z,7.02
2019-03-16T16:46:17.615Z,7.07
2019-03-16T16:48:43.400Z,7.14
2019-03-16T16:51:09.198Z,7.21
2019-03-16T16:53:34.977Z,7.33
2019-03-16T16:56:00.763Z,7.41
2019-03-16T16:58:26.538Z,7.47
2019-03-16T17:00:52.330Z,7.49
2019-03-16T17:03:18.102Z,7.54
2019-03-16T17:05:43.892Z,7.61
2019-03-16T17:08:09.667Z,7.60
2019-03-16T17:10:35.452Z,7.67
2019-03-16T17:13:01.247Z,7.72
2019-03-16T17:15:27.033Z,7.72
2019-03-16T17:17:52.814Z,7.76
2019-03-16T17:20:18.597Z,7.73
2019-03-16T17:22:44.468Z,7.76
2019-03-16T17:25:11.464Z,7.87
2019-03-16T17:27:37.263Z,7.83
2019-03-16T17:30:26.336Z,7.87
2019-03-16T17:32:52.134Z,7.86
2019-03-16T17:35:17.903Z,7.89
2019-03-16T17:37:43.696Z,7.84
2019-03-16T17:40:13.308Z,7.85
2019-03-16T17:42:39.101Z,7.88
2019-03-16T17:45:07.879Z,7.89
2019-03-16T17:47:33.669Z,7.87
2019-03-16T17:49:59.451Z,7.87
2019-03-16T17:52:25.333Z,7.82
2019-03-16T17:54:51.087Z,7.89
2019-03-16T17:57:16.902Z,7.88
2019-03-16T17:59:42.668Z,7.83
2019-03-16T18:02:08.467Z,7.86
2019-03-16T18:04:34.239Z,7.87
2019-03-16T18:07:00.043Z,7.90
2019-03-16T18:09:25.823Z,7.88
2019-03-16T18:11:51.626Z,7.88
2019-03-16T18:14:17.661Z,7.89
2019-03-16T18:16:43.452Z,7.92
2019-03-16T18:19:09.243Z,7.82
2019-03-16T18:21:35.046Z,7.82
2019-03-16T18:24:00.831Z,7.86
2019-03-16T18:26:26.614Z,7.85
2019-03-16T18:28:52.410Z,7.85
2019-03-16T18:31:18.189Z,7.85
2019-03-16T18:33:43.981Z,7.88
2019-03-16T18:36:11.575Z,7.89
2019-03-16T18:38:37.460Z,7.91
2019-03-16T18:41:03.240Z,7.88
2019-03-16T18:43:29.029Z,7.87
2019-03-16T18:45:54.825Z,7.89
2019-03-16T18:48:20.614Z,7.86
2019-03-16T18:50:46.382Z,7.82
2019-03-16T18:53:12.182Z,7.87
2019-03-16T18:55:37.954Z,7.85
2019-03-16T18:58:03.746Z,7.86
2019-03-16T19:00:29.523Z,7.91
2019-03-16T19:02:55.314Z,7.90
2019-03-16T19:05:21.105Z,7.89
2019-03-16T19:07:46.899Z,7.85
2019-03-16T19:10:14.975Z,7.91
2019-03-16T19:12:40.776Z,7.84
2019-03-16T19:15:11.924Z,7.91
2019-03-16T19:17:37.739Z,7.87
2019-03-16T19:20:07.191Z,7.87
2019-03-16T19:22:32.973Z,7.90
2019-03-16T19:24:58.765Z,7.90
2019-03-16T19:27:24.540Z,7.86
2019-03-16T19:29:50.334Z,7.79
2019-03-16T19:32:17.357Z,7.80
2019-03-16T19:34:43.295Z,7.86
2019-03-16T19:37:09.080Z,7.82
2019-03-16T19:39:34.923Z,7.83
2019-03-16T19:42:00.701Z,7.79
2019-03-16T19:44:26.487Z,7.76
2019-03-16T19:46:52.273Z,7.82
2019-03-16T19:49:18.088Z,7.82
2019-03-16T19:51:43.843Z,7.80
2019-03-16T19:54:09.631Z,7.81
2019-03-16T19:56:35.406Z,7.74
2019-03-16T19:59:01.221Z,7.76
2019-03-16T20:01:26.973Z,7.77
2019-03-16T20:03:52.761Z,7.77
2019-03-16T20:06:25.734Z,7.72
2019-03-16T20:08:46.248Z,7.72
2019-03-16T20:11:12.028Z,7.74
2019-03-16T20:13:37.841Z,7.75
2019-03-16T20:16:03.610Z,7.74
2019-03-16T20:18:29.383Z,7.72
2019-03-16T20:20:55.170Z,7.73
2019-03-16T20:23:20.964Z,7.69
2019-03-16T20:25:46.755Z,7.74
2019-03-16T20:28:12.530Z,7.74
2019-03-16T20:30:38.331Z,7.76
2019-03-16T20:33:04.666Z,7.75
2019-03-16T20:35:30.773Z,7.82
2019-03-16T20:37:56.547Z,7.81
2019-03-16T20:40:22.332Z,7.87
2019-03-16T20:42:48.118Z,7.87
2019-03-16T20:45:14.023Z,7.86
2019-03-16T20:47:39.879Z,7.88
2019-03-16T20:50:14.315Z,7.86
2019-03-16T20:52:40.101Z,7.89
2019-03-16T20:55:07.497Z,7.90
2019-03-16T20:57:33.275Z,7.96
2019-03-16T20:59:59.064Z,7.98
2019-03-16T21:02:24.859Z,8.04
2019-03-16T21:04:50.635Z,8.02
2019-03-16T21:07:16.433Z,8.04
2019-03-16T21:09:42.211Z,8.04
2019-03-16T21:12:08.017Z,8.07
2019-03-16T21:14:33.809Z,8.04
2019-03-16T21:16:59.583Z,8.17
2019-03-16T21:19:25.368Z,8.13
2019-03-16T21:21:51.160Z,8.11
2019-03-16T21:24:16.931Z,8.20
2019-03-16T21:26:51.950Z,8.18
2019-03-16T21:29:10.417Z,8.26
2019-03-16T21:31:36.212Z,8.28
2019-03-16T21:34:01.988Z,8.28
2019-03-16T21:36:27.833Z,8.38
2019-03-16T21:38:53.578Z,8.36
2019-03-16T21:41:19.385Z,8.36
2019-03-16T21:43:45.158Z,8.39
2019-03-16T21:46:10.950Z,8.42
2019-03-16T21:48:36.747Z,8.53
2019-03-16T21:51:02.621Z,8.41
2019-03-16T21:53:28.417Z,8.39
2019-03-16T21:55:54.199Z,8.45
2019-03-16T21:58:20.000Z,8.39
2019-03-16T22:00:45.779Z,8.42
2019-03-16T22:03:11.578Z,8.48
2019-03-16T22:05:37.357Z,8.56
2019-03-16T22:08:03.147Z,8.53
2019-03-16T22:10:28.925Z,8.58
2019-03-16T22:12:54.737Z,8.66
2019-03-16T22:15:20.513Z,8.58
2019-03-16T22:17:46.301Z,8.60
2019-03-16T22:20:19.260Z,8.60
2019-03-16T22:22:45.149Z,8.60
2019-03-16T22:25:11.440Z,8.72
2019-03-16T22:27:37.226Z,8.74
2019-03-16T22:30:15.916Z,8.74
2019-03-16T22:32:41.687Z,8.75
2019-03-16T22:35:09.133Z,8.74
2019-03-16T22:37:35.163Z,8.72
2019-03-16T22:40:00.952Z,8.68
2019-03-16T22:42:26.735Z,8.67
2019-03-16T22:44:52.532Z,8.72
2019-03-16T22:47:18.319Z,8.76
2019-03-16T22:49:44.182Z,8.77
2019-03-16T22:52:10.012Z,8.74
2019-03-16T22:54:35.813Z,8.75
2019-03-16T22:57:01.590Z,8.71
2019-03-16T22:59:27.388Z,8.65
2019-03-16T23:01:53.264Z,8.63
2019-03-16T23:04:19.069Z,8.68
2019-03-16T23:06:44.858Z,8.66
2019-03-16T23:09:10.676Z,8.64
2019-03-16T23:11:36.443Z,8.69
2019-03-16T23:14:02.303Z,8.71
2019-03-16T23:16:28.116Z,8.71
2019-03-16T23:18:54.008Z,8.74
2019-03-16T23:21:19.791Z,8.72
2019-03-16T23:23:45.588Z,8.74
2019-03-16T23:26:11.368Z,8.69
2019-03-16T23:28:37.169Z,8.68
2019-03-16T23:31:02.942Z,8.71
2019-03-16T23:33:28.719Z,8.79
2019-03-16T23:35:54.514Z,8.82
2019-03-16T23:38:20.293Z,8.79
2019-03-16T23:40:46.080Z,8.85
2019-03-16T23:43:11.852Z,8.85
2019-03-16T23:45:37.649Z,8.85
2019-03-16T23:48:03.424Z,8.88
2019-03-16T23:50:29.215Z,8.89
2019-03-16T23:52:55.037Z,8.95
2019-03-16T23:55:20.823Z,8.94
2019-03-16T23:57:46.608Z,8.96
